sensor_id;sensor_type;location;lat;lon;timestamp;P1;durP1;ratioP1;P2;durP2;ratioP2
34007;SDS011;41085;51.594;7.138;2022-10-31T00:00:40;3.63;;;0.90;;
34007;SDS011;41085;51.594;7.138;2022-10-31T00:04:41;2.53;;;0.70;;
34007;SDS011;41085;51.594;7.138;2022-10-31T00:08:41;1.60;;;0.90;;
34007;SDS011;41085;51.594;7.138;2022-10-31T00:12:42;1.57;;;0.80;;
34007;SDS011;41085;51.594;7.138;2022-10-31T00:16:43;0.73;;;0.60;;
34007;SDS011;41085;51.594;7.138;2022-10-31T00:20:43;1.07;;;0.70;;
34007;SDS011;41085;51.594;7.138;2022-10-31T00:24:44;1.70;;;0.65;;
34007;SDS011;41085;51.594;7.138;2022-10-31T00:28:44;1.65;;;0.70;;
34007;SDS011;41085;51.594;7.138;2022-10-31T00:32:45;3.53;;;0.63;;
34007;SDS011;41085;51.594;7.138;2022-10-31T00:36:46;0.90;;;0.67;;
34007;SDS011;41085;51.594;7.138;2022-10-31T00:40:46;1.40;;;0.90;;
34007;SDS011;41085;51.594;7.138;2022-10-31T00:44:47;1.20;;;0.60;;
34007;SDS011;41085;51.594;7.138;2022-10-31T00:48:47;1.08;;;0.73;;
34007;SDS011;41085;51.594;7.138;2022-10-31T00:52:48;2.65;;;0.60;;
34007;SDS011;41085;51.594;7.138;2022-10-31T00:56:49;0.90;;;0.63;;
34007;SDS011;41085;51.594;7.138;2022-10-31T01:00:50;0.70;;;0.47;;
34007;SDS011;41085;51.594;7.138;2022-10-31T01:04:54;1.20;;;0.70;;
34007;SDS011;41085;51.594;7.138;2022-10-31T01:08:55;1.13;;;0.60;;
34007;SDS011;41085;51.594;7.138;2022-10-31T01:12:55;1.20;;;0.70;;
34007;SDS011;41085;51.594;7.138;2022-10-31T01:16:56;1.10;;;0.40;;
34007;SDS011;41085;51.594;7.138;2022-10-31T01:20:57;0.87;;;0.50;;
34007;SDS011;41085;51.594;7.138;2022-10-31T01:24:59;1.40;;;0.52;;
34007;SDS011;41085;51.594;7.138;2022-10-31T01:29:01;0.40;;;0.40;;
34007;SDS011;41085;51.594;7.138;2022-10-31T01:33:05;3.38;;;0.50;;
34007;SDS011;41085;51.594;7.138;2022-10-31T01:37:05;1.80;;;0.60;;
34007;SDS011;41085;51.594;7.138;2022-10-31T01:41:06;0.53;;;0.43;;
34007;SDS011;41085;51.594;7.138;2022-10-31T01:45:09;2.50;;;0.68;;
34007;SDS011;41085;51.594;7.138;2022-10-31T01:49:15;1.70;;;0.70;;
34007;SDS011;41085;51.594;7.138;2022-10-31T01:53:19;1.20;;;0.80;;
34007;SDS011;41085;51.594;7.138;2022-10-31T01:57:20;1.67;;;0.52;;
34007;SDS011;41085;51.594;7.138;2022-10-31T02:01:22;1.80;;;0.60;;
34007;SDS011;41085;51.594;7.138;2022-10-31T02:05:24;0.80;;;0.55;;
34007;SDS011;41085;51.594;7.138;2022-10-31T02:09:27;1.17;;;0.65;;
34007;SDS011;41085;51.594;7.138;2022-10-31T02:13:30;2.13;;;0.47;;
34007;SDS011;41085;51.594;7.138;2022-10-31T02:17:31;2.72;;;0.60;;
34007;SDS011;41085;51.594;7.138;2022-10-31T02:21:44;1.20;;;0.50;;
34007;SDS011;41085;51.594;7.138;2022-10-31T02:39:17;1.40;;;0.40;;
34007;SDS011;41085;51.594;7.138;2022-10-31T02:43:35;0.98;;;0.63;;
34007;SDS011;41085;51.594;7.138;2022-10-31T02:47:58;1.77;;;0.60;;
34007;SDS011;41085;51.594;7.138;2022-10-31T02:52:13;3.75;;;0.60;;
34007;SDS011;41085;51.594;7.138;2022-10-31T02:56:15;1.40;;;0.50;;
34007;SDS011;41085;51.594;7.138;2022-10-31T03:00:17;0.90;;;0.40;;
34007;SDS011;41085;51.594;7.138;2022-10-31T03:13:21;0.30;;;0.30;;
34007;SDS011;41085;51.594;7.138;2022-10-31T03:17:26;2.60;;;0.70;;
34007;SDS011;41085;51.594;7.138;2022-10-31T03:21:42;1.20;;;1.00;;
34007;SDS011;41085;51.594;7.138;2022-10-31T03:25:50;2.72;;;1.20;;
34007;SDS011;41085;51.594;7.138;2022-10-31T03:29:54;3.60;;;0.75;;
34007;SDS011;41085;51.594;7.138;2022-10-31T03:33:58;1.33;;;0.82;;
34007;SDS011;41085;51.594;7.138;2022-10-31T03:38:00;7.53;;;0.80;;
34007;SDS011;41085;51.594;7.138;2022-10-31T03:42:07;1.42;;;0.70;;
34007;SDS011;41085;51.594;7.138;2022-10-31T03:46:15;1.30;;;0.70;;
34007;SDS011;41085;51.594;7.138;2022-10-31T03:50:15;2.90;;;0.60;;
34007;SDS011;41085;51.594;7.138;2022-10-31T03:58:35;1.00;;;0.55;;
34007;SDS011;41085;51.594;7.138;2022-10-31T04:06:58;2.10;;;0.60;;
34007;SDS011;41085;51.594;7.138;2022-10-31T04:11:01;0.77;;;0.60;;
34007;SDS011;41085;51.594;7.138;2022-10-31T04:15:03;1.13;;;0.50;;
34007;SDS011;41085;51.594;7.138;2022-10-31T04:19:06;2.70;;;0.60;;
34007;SDS011;41085;51.594;7.138;2022-10-31T04:23:25;2.37;;;0.60;;
34007;SDS011;41085;51.594;7.138;2022-10-31T04:27:26;0.45;;;0.40;;
34007;SDS011;41085;51.594;7.138;2022-10-31T04:31:27;0.60;;;0.30;;
34007;SDS011;41085;51.594;7.138;2022-10-31T04:35:27;0.50;;;0.40;;
34007;SDS011;41085;51.594;7.138;2022-10-31T04:39:28;1.00;;;0.60;;
34007;SDS011;41085;51.594;7.138;2022-10-31T04:43:28;0.77;;;0.40;;
34007;SDS011;41085;51.594;7.138;2022-10-31T04:47:30;0.45;;;0.32;;
34007;SDS011;41085;51.594;7.138;2022-10-31T04:51:33;1.98;;;0.65;;
34007;SDS011;41085;51.594;7.138;2022-10-31T04:55:34;0.77;;;0.40;;
34007;SDS011;41085;51.594;7.138;2022-10-31T04:59:35;0.77;;;0.57;;
34007;SDS011;41085;51.594;7.138;2022-10-31T05:03:36;1.10;;;0.70;;
34007;SDS011;41085;51.594;7.138;2022-10-31T05:07:40;1.10;;;0.52;;
34007;SDS011;41085;51.594;7.138;2022-10-31T05:11:41;0.63;;;0.40;;
34007;SDS011;41085;51.594;7.138;2022-10-31T05:15:42;0.93;;;0.43;;
34007;SDS011;41085;51.594;7.138;2022-10-31T05:19:42;0.80;;;0.40;;
34007;SDS011;41085;51.594;7.138;2022-10-31T05:23:43;1.60;;;0.40;;
34007;SDS011;41085;51.594;7.138;2022-10-31T05:27:44;0.75;;;0.50;;
34007;SDS011;41085;51.594;7.138;2022-10-31T05:31:46;0.43;;;0.28;;
34007;SDS011;41085;51.594;7.138;2022-10-31T05:35:46;0.90;;;0.60;;
34007;SDS011;41085;51.594;7.138;2022-10-31T05:39:47;0.30;;;0.30;;
34007;SDS011;41085;51.594;7.138;2022-10-31T05:43:48;2.33;;;1.30;;
34007;SDS011;41085;51.594;7.138;2022-10-31T05:47:52;2.35;;;1.15;;
34007;SDS011;41085;51.594;7.138;2022-10-31T05:51:54;2.97;;;1.40;;
34007;SDS011;41085;51.594;7.138;2022-10-31T05:55:55;2.37;;;1.20;;
34007;SDS011;41085;51.594;7.138;2022-10-31T05:59:55;2.43;;;1.20;;
34007;SDS011;41085;51.594;7.138;2022-10-31T06:03:56;2.17;;;1.00;;
34007;SDS011;41085;51.594;7.138;2022-10-31T06:07:56;3.07;;;0.77;;
34007;SDS011;41085;51.594;7.138;2022-10-31T06:11:57;1.52;;;0.95;;
34007;SDS011;41085;51.594;7.138;2022-10-31T06:15:58;4.73;;;1.10;;
34007;SDS011;41085;51.594;7.138;2022-10-31T06:19:58;2.23;;;1.00;;
34007;SDS011;41085;51.594;7.138;2022-10-31T06:23:59;1.50;;;0.90;;
34007;SDS011;41085;51.594;7.138;2022-10-31T06:28:00;2.03;;;1.25;;
34007;SDS011;41085;51.594;7.138;2022-10-31T06:32:00;1.63;;;0.70;;
34007;SDS011;41085;51.594;7.138;2022-10-31T06:36:01;1.00;;;0.60;;
34007;SDS011;41085;51.594;7.138;2022-10-31T06:40:02;1.10;;;0.70;;
34007;SDS011;41085;51.594;7.138;2022-10-31T06:44:02;4.30;;;0.50;;
34007;SDS011;41085;51.594;7.138;2022-10-31T06:48:03;1.53;;;0.73;;
34007;SDS011;41085;51.594;7.138;2022-10-31T06:52:04;2.10;;;0.55;;
34007;SDS011;41085;51.594;7.138;2022-10-31T06:56:05;1.20;;;0.60;;
34007;SDS011;41085;51.594;7.138;2022-10-31T07:00:06;1.10;;;0.80;;
34007;SDS011;41085;51.594;7.138;2022-10-31T07:04:08;1.10;;;0.50;;
34007;SDS011;41085;51.594;7.138;2022-10-31T07:08:10;1.17;;;0.77;;
34007;SDS011;41085;51.594;7.138;2022-10-31T07:12:12;0.75;;;0.70;;
34007;SDS011;41085;51.594;7.138;2022-10-31T07:16:13;0.97;;;0.57;;
34007;SDS011;41085;51.594;7.138;2022-10-31T07:20:13;2.17;;;0.43;;
34007;SDS011;41085;51.594;7.138;2022-10-31T07:24:14;0.73;;;0.50;;
34007;SDS011;41085;51.594;7.138;2022-10-31T07:28:15;0.50;;;0.40;;
34007;SDS011;41085;51.594;7.138;2022-10-31T07:32:15;2.05;;;0.70;;
34007;SDS011;41085;51.594;7.138;2022-10-31T07:36:16;2.10;;;0.50;;
34007;SDS011;41085;51.594;7.138;2022-10-31T07:40:17;0.63;;;0.47;;
34007;SDS011;41085;51.594;7.138;2022-10-31T07:44:18;2.80;;;0.57;;
34007;SDS011;41085;51.594;7.138;2022-10-31T07:48:19;1.00;;;0.55;;
34007;SDS011;41085;51.594;7.138;2022-10-31T07:52:20;0.77;;;0.63;;
34007;SDS011;41085;51.594;7.138;2022-10-31T07:56:20;0.80;;;0.43;;
34007;SDS011;41085;51.594;7.138;2022-10-31T08:00:21;0.75;;;0.57;;
34007;SDS011;41085;51.594;7.138;2022-10-31T08:04:22;2.60;;;0.63;;
34007;SDS011;41085;51.594;7.138;2022-10-31T08:08:22;0.93;;;0.50;;
34007;SDS011;41085;51.594;7.138;2022-10-31T08:12:24;0.43;;;0.40;;
34007;SDS011;41085;51.594;7.138;2022-10-31T08:16:24;1.20;;;0.53;;
34007;SDS011;41085;51.594;7.138;2022-10-31T08:20:26;1.63;;;0.70;;
34007;SDS011;41085;51.594;7.138;2022-10-31T08:24:26;0.53;;;0.30;;
34007;SDS011;41085;51.594;7.138;2022-10-31T08:28:27;1.30;;;0.60;;
34007;SDS011;41085;51.594;7.138;2022-10-31T08:32:28;0.60;;;0.57;;
34007;SDS011;41085;51.594;7.138;2022-10-31T08:36:28;0.73;;;0.53;;
34007;SDS011;41085;51.594;7.138;2022-10-31T08:40:29;0.60;;;0.40;;
34007;SDS011;41085;51.594;7.138;2022-10-31T08:44:31;1.03;;;0.53;;
34007;SDS011;41085;51.594;7.138;2022-10-31T08:48:32;0.60;;;0.40;;
34007;SDS011;41085;51.594;7.138;2022-10-31T08:52:32;0.60;;;0.40;;
34007;SDS011;41085;51.594;7.138;2022-10-31T08:56:33;0.32;;;0.30;;
34007;SDS011;41085;51.594;7.138;2022-10-31T09:00:34;1.10;;;0.60;;
34007;SDS011;41085;51.594;7.138;2022-10-31T09:04:35;2.13;;;0.50;;
34007;SDS011;41085;51.594;7.138;2022-10-31T09:08:36;2.53;;;0.50;;
34007;SDS011;41085;51.594;7.138;2022-10-31T09:12:37;0.70;;;0.40;;
34007;SDS011;41085;51.594;7.138;2022-10-31T09:16:37;0.85;;;0.50;;
34007;SDS011;41085;51.594;7.138;2022-10-31T09:20:38;2.73;;;0.60;;
34007;SDS011;41085;51.594;7.138;2022-10-31T09:24:40;0.80;;;0.40;;
34007;SDS011;41085;51.594;7.138;2022-10-31T09:28:41;1.17;;;0.63;;
34007;SDS011;41085;51.594;7.138;2022-10-31T09:32:41;1.47;;;0.67;;
34007;SDS011;41085;51.594;7.138;2022-10-31T09:36:42;0.47;;;0.40;;
34007;SDS011;41085;51.594;7.138;2022-10-31T09:44:52;2.50;;;0.73;;
34007;SDS011;41085;51.594;7.138;2022-10-31T09:53:52;4.88;;;2.65;;
34007;SDS011;41085;51.594;7.138;2022-10-31T09:58:00;5.25;;;2.03;;
34007;SDS011;41085;51.594;7.138;2022-10-31T10:06:15;3.57;;;2.10;;
34007;SDS011;41085;51.594;7.138;2022-10-31T10:10:27;4.65;;;2.08;;
34007;SDS011;41085;51.594;7.138;2022-10-31T10:19:27;4.93;;;2.53;;
34007;SDS011;41085;51.594;7.138;2022-10-31T10:23:55;6.33;;;1.97;;
34007;SDS011;41085;51.594;7.138;2022-10-31T10:28:21;3.10;;;1.97;;
34007;SDS011;41085;51.594;7.138;2022-10-31T10:32:30;10.90;;;1.53;;
34007;SDS011;41085;51.594;7.138;2022-10-31T10:36:57;4.88;;;1.30;;
34007;SDS011;41085;51.594;7.138;2022-10-31T10:41:03;5.88;;;1.38;;
34007;SDS011;41085;51.594;7.138;2022-10-31T10:45:13;4.72;;;0.80;;
34007;SDS011;41085;51.594;7.138;2022-10-31T10:49:37;1.90;;;1.00;;
34007;SDS011;41085;51.594;7.138;2022-10-31T10:58:17;2.47;;;0.93;;
34007;SDS011;41085;51.594;7.138;2022-10-31T11:02:19;1.90;;;1.10;;
34007;SDS011;41085;51.594;7.138;2022-10-31T11:06:22;2.20;;;1.10;;
34007;SDS011;41085;51.594;7.138;2022-10-31T11:10:26;2.47;;;1.20;;
34007;SDS011;41085;51.594;7.138;2022-10-31T11:14:27;3.03;;;0.90;;
34007;SDS011;41085;51.594;7.138;2022-10-31T11:18:31;1.90;;;0.95;;
34007;SDS011;41085;51.594;7.138;2022-10-31T11:22:36;0.80;;;0.60;;
34007;SDS011;41085;51.594;7.138;2022-10-31T11:26:38;2.33;;;1.42;;
34007;SDS011;41085;51.594;7.138;2022-10-31T11:30:46;2.60;;;0.80;;
34007;SDS011;41085;51.594;7.138;2022-10-31T11:34:56;1.10;;;0.90;;
34007;SDS011;41085;51.594;7.138;2022-10-31T11:39:00;2.63;;;1.00;;
34007;SDS011;41085;51.594;7.138;2022-10-31T11:43:03;2.03;;;0.90;;
34007;SDS011;41085;51.594;7.138;2022-10-31T11:47:03;1.07;;;0.80;;
34007;SDS011;41085;51.594;7.138;2022-10-31T11:51:06;2.00;;;0.80;;
34007;SDS011;41085;51.594;7.138;2022-10-31T11:59:20;1.27;;;0.70;;
34007;SDS011;41085;51.594;7.138;2022-10-31T12:03:42;2.25;;;0.95;;
34007;SDS011;41085;51.594;7.138;2022-10-31T12:07:51;1.80;;;1.00;;
34007;SDS011;41085;51.594;7.138;2022-10-31T12:16:07;2.10;;;0.70;;
34007;SDS011;41085;51.594;7.138;2022-10-31T12:28:41;1.30;;;0.63;;
34007;SDS011;41085;51.594;7.138;2022-10-31T12:45:56;1.10;;;0.55;;
34007;SDS011;41085;51.594;7.138;2022-10-31T12:58:47;0.65;;;0.60;;
34007;SDS011;41085;51.594;7.138;2022-10-31T13:02:54;1.52;;;0.70;;
34007;SDS011;41085;51.594;7.138;2022-10-31T13:07:01;1.95;;;0.70;;
34007;SDS011;41085;51.594;7.138;2022-10-31T13:11:12;1.40;;;0.90;;
34007;SDS011;41085;51.594;7.138;2022-10-31T13:15:23;1.23;;;0.70;;
34007;SDS011;41085;51.594;7.138;2022-10-31T13:19:36;1.50;;;0.88;;
34007;SDS011;41085;51.594;7.138;2022-10-31T13:23:41;1.00;;;0.90;;
34007;SDS011;41085;51.594;7.138;2022-10-31T13:31:50;1.43;;;0.47;;
34007;SDS011;41085;51.594;7.138;2022-10-31T13:40:42;1.00;;;0.50;;
34007;SDS011;41085;51.594;7.138;2022-10-31T13:44:38;1.17;;;0.50;;
34007;SDS011;41085;51.594;7.138;2022-10-31T13:48:39;0.57;;;0.50;;
34007;SDS011;41085;51.594;7.138;2022-10-31T13:52:42;0.90;;;0.57;;
34007;SDS011;41085;51.594;7.138;2022-10-31T13:56:43;0.97;;;0.63;;
34007;SDS011;41085;51.594;7.138;2022-10-31T14:01:11;0.82;;;0.50;;
34007;SDS011;41085;51.594;7.138;2022-10-31T14:05:26;1.30;;;0.60;;
34007;SDS011;41085;51.594;7.138;2022-10-31T14:09:50;0.60;;;0.47;;
34007;SDS011;41085;51.594;7.138;2022-10-31T14:14:03;0.50;;;0.45;;
34007;SDS011;41085;51.594;7.138;2022-10-31T14:18:22;0.85;;;0.50;;
34007;SDS011;41085;51.594;7.138;2022-10-31T14:22:41;0.82;;;0.50;;
34007;SDS011;41085;51.594;7.138;2022-10-31T14:26:53;1.43;;;0.60;;
34007;SDS011;41085;51.594;7.138;2022-10-31T14:30:57;0.80;;;0.50;;
34007;SDS011;41085;51.594;7.138;2022-10-31T14:34:58;0.90;;;0.47;;
34007;SDS011;41085;51.594;7.138;2022-10-31T14:43:30;1.20;;;0.60;;
34007;SDS011;41085;51.594;7.138;2022-10-31T14:47:56;2.00;;;0.67;;
34007;SDS011;41085;51.594;7.138;2022-10-31T14:52:17;0.88;;;0.43;;
34007;SDS011;41085;51.594;7.138;2022-10-31T23:12:01;4.15;;;0.70;;
